KPUW

Pullman / Moscow Regional Airport

Pullman/Moscow, Washington, USA
KPUW 210522Z 2106/2206 VRB02KT P6SM SKC FM211700 26007KT P6SM FEW100 FM220300 VRB03KT P6SM SKC
Issued Valid From Valid To
Jul-21 @ 05:22 UTC
(5 hours ago)
Jul-21 @ 06:00 UTC
(4 hours ago)
Jul-22 @ 06:00 UTC
(in 20 hours)
Jul-21 @ 06:00 to Jul-21 @ 17:00
KPUW 210522Z 2106/2206 VRB02KT P6SM SKC
Wind Visibility Clouds
Variable at 2 knots Greater than 6 miles
  • Clear skies
From Jul-21 @ 17:00 to Jul-22 @ 03:00
FM211700 26007KT P6SM FEW100
Wind Visibility Clouds
260° at 7 knots Greater than 6 miles
  • Few at 10,000' AGL
From Jul-22 @ 03:00 to Jul-22 @ 06:00
FM220300 VRB03KT P6SM SKC
Wind Visibility Clouds
Variable at 3 knots Greater than 6 miles
  • Clear skies
KPUW 210522Z 2106/2206 VRB02KT P6SM SKC FM211700 26007KT P6SM FEW100 FM220300 VRB03KT P6SM SKC
Issued Jul-21 @ 05:22 UTC
(5 hours ago)
Valid From Jul-21 @ 06:00 UTC
(4 hours ago)
Valid To Jul-22 @ 06:00 UTC
(in 20 hours)
Jul-21 @ 06:00 - Jul-21 @ 17:00
Wind Visibility
Variable at 2 knots Greater than 6 miles
Clouds
  • Clear skies
From Jul-21 @ 17:00 - Jul-22 @ 03:00
Wind Visibility
260° at 7 knots Greater than 6 miles
Clouds
  • Few at 10,000' AGL
From Jul-22 @ 03:00 - Jul-22 @ 06:00
Wind Visibility
Variable at 3 knots Greater than 6 miles
Clouds
  • Clear skies